sensor_id;sensor_type;location;lat;lon;timestamp;P1;durP1;ratioP1;P2;durP2;ratioP2
41253;SDS011;26987;59.928;30.306;2022-12-07T00:02:09;14.32;;;7.45;;
41253;SDS011;26987;59.928;30.306;2022-12-07T00:04:36;16.90;;;7.85;;
41253;SDS011;26987;59.928;30.306;2022-12-07T00:07:04;16.10;;;7.45;;
41253;SDS011;26987;59.928;30.306;2022-12-07T00:09:32;18.77;;;8.15;;
41253;SDS011;26987;59.928;30.306;2022-12-07T00:11:59;18.38;;;8.95;;
41253;SDS011;26987;59.928;30.306;2022-12-07T00:14:27;17.35;;;8.32;;
41253;SDS011;26987;59.928;30.306;2022-12-07T00:16:55;15.13;;;7.80;;
41253;SDS011;26987;59.928;30.306;2022-12-07T00:19:24;15.98;;;7.95;;
41253;SDS011;26987;59.928;30.306;2022-12-07T00:21:51;17.63;;;8.27;;
41253;SDS011;26987;59.928;30.306;2022-12-07T00:24:19;14.90;;;7.82;;
41253;SDS011;26987;59.928;30.306;2022-12-07T00:26:46;13.68;;;7.65;;
41253;SDS011;26987;59.928;30.306;2022-12-07T00:29:15;15.35;;;8.07;;
41253;SDS011;26987;59.928;30.306;2022-12-07T00:31:45;15.52;;;7.68;;
41253;SDS011;26987;59.928;30.306;2022-12-07T00:34:13;14.05;;;8.00;;
41253;SDS011;26987;59.928;30.306;2022-12-07T00:36:44;17.73;;;8.15;;
41253;SDS011;26987;59.928;30.306;2022-12-07T00:39:12;16.15;;;8.02;;
41253;SDS011;26987;59.928;30.306;2022-12-07T00:41:40;17.30;;;8.45;;
41253;SDS011;26987;59.928;30.306;2022-12-07T00:44:08;14.70;;;7.95;;
41253;SDS011;26987;59.928;30.306;2022-12-07T00:46:36;17.10;;;7.60;;
41253;SDS011;26987;59.928;30.306;2022-12-07T00:49:03;14.98;;;7.68;;
41253;SDS011;26987;59.928;30.306;2022-12-07T00:51:31;17.42;;;8.30;;
41253;SDS011;26987;59.928;30.306;2022-12-07T00:54:00;15.50;;;7.75;;
41253;SDS011;26987;59.928;30.306;2022-12-07T00:56:28;13.73;;;7.72;;
41253;SDS011;26987;59.928;30.306;2022-12-07T00:58:57;14.50;;;8.05;;
41253;SDS011;26987;59.928;30.306;2022-12-07T01:01:27;18.55;;;7.68;;
41253;SDS011;26987;59.928;30.306;2022-12-07T01:03:55;13.77;;;6.93;;
41253;SDS011;26987;59.928;30.306;2022-12-07T01:06:23;13.55;;;6.90;;
41253;SDS011;26987;59.928;30.306;2022-12-07T01:08:52;15.30;;;7.13;;
41253;SDS011;26987;59.928;30.306;2022-12-07T01:11:22;13.75;;;7.32;;
41253;SDS011;26987;59.928;30.306;2022-12-07T01:13:52;17.15;;;7.40;;
41253;SDS011;26987;59.928;30.306;2022-12-07T01:16:20;11.02;;;6.40;;
41253;SDS011;26987;59.928;30.306;2022-12-07T01:18:50;15.25;;;6.88;;
41253;SDS011;26987;59.928;30.306;2022-12-07T01:21:20;13.85;;;7.30;;
41253;SDS011;26987;59.928;30.306;2022-12-07T01:23:49;14.60;;;6.80;;
41253;SDS011;26987;59.928;30.306;2022-12-07T01:26:18;13.73;;;7.15;;
41253;SDS011;26987;59.928;30.306;2022-12-07T01:28:48;13.77;;;6.68;;
41253;SDS011;26987;59.928;30.306;2022-12-07T01:31:17;11.80;;;6.60;;
41253;SDS011;26987;59.928;30.306;2022-12-07T01:33:47;13.40;;;6.82;;
41253;SDS011;26987;59.928;30.306;2022-12-07T01:36:17;12.25;;;7.07;;
41253;SDS011;26987;59.928;30.306;2022-12-07T01:38:47;12.57;;;6.75;;
41253;SDS011;26987;59.928;30.306;2022-12-07T01:41:17;15.55;;;7.07;;
41253;SDS011;26987;59.928;30.306;2022-12-07T01:46:40;12.90;;;6.32;;
41253;SDS011;26987;59.928;30.306;2022-12-07T01:49:09;10.80;;;5.78;;
41253;SDS011;26987;59.928;30.306;2022-12-07T01:51:41;12.25;;;6.13;;
41253;SDS011;26987;59.928;30.306;2022-12-07T01:54:11;14.27;;;6.15;;
41253;SDS011;26987;59.928;30.306;2022-12-07T01:56:40;15.27;;;6.78;;
41253;SDS011;26987;59.928;30.306;2022-12-07T01:59:16;11.73;;;6.22;;
41253;SDS011;26987;59.928;30.306;2022-12-07T02:01:44;12.38;;;6.88;;
41253;SDS011;26987;59.928;30.306;2022-12-07T02:04:12;10.75;;;5.70;;
41253;SDS011;26987;59.928;30.306;2022-12-07T02:06:40;13.40;;;6.22;;
41253;SDS011;26987;59.928;30.306;2022-12-07T02:09:10;14.18;;;7.20;;
41253;SDS011;26987;59.928;30.306;2022-12-07T02:11:38;14.23;;;6.57;;
41253;SDS011;26987;59.928;30.306;2022-12-07T02:14:07;12.80;;;7.03;;
41253;SDS011;26987;59.928;30.306;2022-12-07T02:16:37;12.65;;;6.57;;
41253;SDS011;26987;59.928;30.306;2022-12-07T02:22:26;14.05;;;6.90;;
41253;SDS011;26987;59.928;30.306;2022-12-07T02:25:14;10.45;;;6.05;;
41253;SDS011;26987;59.928;30.306;2022-12-07T02:27:50;9.35;;;4.97;;
41253;SDS011;26987;59.928;30.306;2022-12-07T02:30:25;11.23;;;6.13;;
41253;SDS011;26987;59.928;30.306;2022-12-07T02:32:59;13.57;;;6.57;;
41253;SDS011;26987;59.928;30.306;2022-12-07T02:35:30;9.95;;;5.80;;
41253;SDS011;26987;59.928;30.306;2022-12-07T02:38:04;10.93;;;6.07;;
41253;SDS011;26987;59.928;30.306;2022-12-07T02:40:38;12.93;;;6.53;;
41253;SDS011;26987;59.928;30.306;2022-12-07T02:43:12;11.18;;;5.90;;
41253;SDS011;26987;59.928;30.306;2022-12-07T02:45:44;10.18;;;5.75;;
41253;SDS011;26987;59.928;30.306;2022-12-07T02:48:14;9.32;;;5.53;;
41253;SDS011;26987;59.928;30.306;2022-12-07T02:50:44;12.27;;;6.47;;
41253;SDS011;26987;59.928;30.306;2022-12-07T02:53:28;14.13;;;6.18;;
41253;SDS011;26987;59.928;30.306;2022-12-07T02:55:58;11.70;;;5.93;;
41253;SDS011;26987;59.928;30.306;2022-12-07T02:58:32;11.85;;;5.70;;
41253;SDS011;26987;59.928;30.306;2022-12-07T03:01:14;10.70;;;5.35;;
41253;SDS011;26987;59.928;30.306;2022-12-07T03:03:54;11.38;;;5.80;;
41253;SDS011;26987;59.928;30.306;2022-12-07T03:06:31;15.35;;;6.10;;
41253;SDS011;26987;59.928;30.306;2022-12-07T03:09:10;10.20;;;5.57;;
41253;SDS011;26987;59.928;30.306;2022-12-07T03:11:43;10.82;;;5.55;;
41253;SDS011;26987;59.928;30.306;2022-12-07T03:14:15;8.90;;;5.70;;
41253;SDS011;26987;59.928;30.306;2022-12-07T03:16:49;10.85;;;5.68;;
41253;SDS011;26987;59.928;30.306;2022-12-07T03:19:22;10.57;;;5.72;;
41253;SDS011;26987;59.928;30.306;2022-12-07T03:21:54;11.13;;;5.50;;
41253;SDS011;26987;59.928;30.306;2022-12-07T03:24:26;10.88;;;5.10;;
41253;SDS011;26987;59.928;30.306;2022-12-07T03:26:59;10.75;;;5.50;;
41253;SDS011;26987;59.928;30.306;2022-12-07T03:29:31;12.48;;;4.93;;
41253;SDS011;26987;59.928;30.306;2022-12-07T03:32:06;11.23;;;5.38;;
41253;SDS011;26987;59.928;30.306;2022-12-07T03:34:41;10.77;;;5.30;;
41253;SDS011;26987;59.928;30.306;2022-12-07T03:37:14;14.20;;;4.97;;
41253;SDS011;26987;59.928;30.306;2022-12-07T03:39:49;8.60;;;5.05;;
41253;SDS011;26987;59.928;30.306;2022-12-07T03:42:26;13.57;;;5.68;;
41253;SDS011;26987;59.928;30.306;2022-12-07T03:44:53;11.65;;;5.65;;
41253;SDS011;26987;59.928;30.306;2022-12-07T03:47:24;13.50;;;5.70;;
41253;SDS011;26987;59.928;30.306;2022-12-07T03:49:58;12.93;;;5.57;;
41253;SDS011;26987;59.928;30.306;2022-12-07T03:52:30;10.20;;;5.70;;
41253;SDS011;26987;59.928;30.306;2022-12-07T03:55:05;11.52;;;6.10;;
41253;SDS011;26987;59.928;30.306;2022-12-07T03:57:38;10.77;;;5.60;;
41253;SDS011;26987;59.928;30.306;2022-12-07T04:00:09;13.23;;;5.38;;
41253;SDS011;26987;59.928;30.306;2022-12-07T04:02:39;15.48;;;6.57;;
41253;SDS011;26987;59.928;30.306;2022-12-07T04:05:08;10.70;;;5.72;;
41253;SDS011;26987;59.928;30.306;2022-12-07T04:07:37;9.18;;;4.63;;
41253;SDS011;26987;59.928;30.306;2022-12-07T04:10:05;14.57;;;6.38;;
41253;SDS011;26987;59.928;30.306;2022-12-07T04:12:33;16.65;;;6.28;;
41253;SDS011;26987;59.928;30.306;2022-12-07T04:15:01;10.85;;;5.88;;
41253;SDS011;26987;59.928;30.306;2022-12-07T04:17:29;10.48;;;5.25;;
41253;SDS011;26987;59.928;30.306;2022-12-07T04:19:58;11.95;;;6.10;;
41253;SDS011;26987;59.928;30.306;2022-12-07T04:22:26;13.88;;;5.22;;
41253;SDS011;26987;59.928;30.306;2022-12-07T04:24:54;8.80;;;5.00;;
41253;SDS011;26987;59.928;30.306;2022-12-07T04:27:22;16.40;;;6.10;;
41253;SDS011;26987;59.928;30.306;2022-12-07T04:29:49;15.70;;;6.43;;
41253;SDS011;26987;59.928;30.306;2022-12-07T04:32:17;10.93;;;4.63;;
41253;SDS011;26987;59.928;30.306;2022-12-07T04:34:45;14.23;;;5.00;;
41253;SDS011;26987;59.928;30.306;2022-12-07T04:37:14;11.90;;;4.80;;
41253;SDS011;26987;59.928;30.306;2022-12-07T04:39:42;12.25;;;4.78;;
41253;SDS011;26987;59.928;30.306;2022-12-07T04:42:10;12.82;;;5.47;;
41253;SDS011;26987;59.928;30.306;2022-12-07T04:44:38;11.48;;;5.07;;
41253;SDS011;26987;59.928;30.306;2022-12-07T04:47:06;11.43;;;5.40;;
41253;SDS011;26987;59.928;30.306;2022-12-07T04:49:34;9.00;;;4.85;;
41253;SDS011;26987;59.928;30.306;2022-12-07T04:52:02;12.43;;;5.70;;
41253;SDS011;26987;59.928;30.306;2022-12-07T04:54:31;15.68;;;6.82;;
41253;SDS011;26987;59.928;30.306;2022-12-07T04:56:59;12.60;;;5.45;;
41253;SDS011;26987;59.928;30.306;2022-12-07T04:59:26;13.13;;;7.20;;
41253;SDS011;26987;59.928;30.306;2022-12-07T05:01:54;13.20;;;5.78;;
41253;SDS011;26987;59.928;30.306;2022-12-07T05:04:22;10.48;;;5.57;;
41253;SDS011;26987;59.928;30.306;2022-12-07T05:06:49;13.70;;;5.40;;
41253;SDS011;26987;59.928;30.306;2022-12-07T05:09:17;14.60;;;5.95;;
41253;SDS011;26987;59.928;30.306;2022-12-07T05:11:46;13.68;;;5.40;;
41253;SDS011;26987;59.928;30.306;2022-12-07T05:14:16;13.60;;;6.35;;
41253;SDS011;26987;59.928;30.306;2022-12-07T05:16:45;12.77;;;6.57;;
41253;SDS011;26987;59.928;30.306;2022-12-07T05:19:14;12.95;;;5.95;;
41253;SDS011;26987;59.928;30.306;2022-12-07T05:21:43;12.05;;;6.03;;
41253;SDS011;26987;59.928;30.306;2022-12-07T05:24:12;17.05;;;6.57;;
41253;SDS011;26987;59.928;30.306;2022-12-07T05:26:41;10.77;;;5.22;;
41253;SDS011;26987;59.928;30.306;2022-12-07T05:29:12;14.07;;;6.13;;
41253;SDS011;26987;59.928;30.306;2022-12-07T05:31:41;12.55;;;5.88;;
41253;SDS011;26987;59.928;30.306;2022-12-07T05:34:08;15.18;;;6.53;;
41253;SDS011;26987;59.928;30.306;2022-12-07T05:36:37;10.93;;;6.63;;
41253;SDS011;26987;59.928;30.306;2022-12-07T05:39:05;14.07;;;6.70;;
41253;SDS011;26987;59.928;30.306;2022-12-07T05:41:33;14.73;;;6.78;;
41253;SDS011;26987;59.928;30.306;2022-12-07T05:44:20;11.68;;;6.22;;
41253;SDS011;26987;59.928;30.306;2022-12-07T05:46:47;13.02;;;6.55;;
41253;SDS011;26987;59.928;30.306;2022-12-07T05:49:15;14.77;;;6.13;;
41253;SDS011;26987;59.928;30.306;2022-12-07T05:51:43;13.10;;;5.97;;
41253;SDS011;26987;59.928;30.306;2022-12-07T05:54:11;10.77;;;5.00;;
41253;SDS011;26987;59.928;30.306;2022-12-07T05:56:39;14.73;;;6.20;;
41253;SDS011;26987;59.928;30.306;2022-12-07T05:59:07;15.68;;;6.47;;
41253;SDS011;26987;59.928;30.306;2022-12-07T06:01:52;11.23;;;5.90;;
41253;SDS011;26987;59.928;30.306;2022-12-07T06:04:22;10.50;;;5.05;;
41253;SDS011;26987;59.928;30.306;2022-12-07T06:06:51;10.85;;;5.82;;
41253;SDS011;26987;59.928;30.306;2022-12-07T06:09:20;14.40;;;6.05;;
41253;SDS011;26987;59.928;30.306;2022-12-07T06:11:48;15.50;;;5.28;;
41253;SDS011;26987;59.928;30.306;2022-12-07T06:14:34;13.68;;;5.22;;
41253;SDS011;26987;59.928;30.306;2022-12-07T06:17:03;11.77;;;5.10;;
41253;SDS011;26987;59.928;30.306;2022-12-07T06:19:31;10.93;;;5.53;;
41253;SDS011;26987;59.928;30.306;2022-12-07T06:21:59;9.10;;;5.07;;
41253;SDS011;26987;59.928;30.306;2022-12-07T06:24:27;9.60;;;5.05;;
41253;SDS011;26987;59.928;30.306;2022-12-07T06:26:54;11.45;;;5.18;;
41253;SDS011;26987;59.928;30.306;2022-12-07T06:29:22;12.35;;;5.75;;
41253;SDS011;26987;59.928;30.306;2022-12-07T06:31:50;10.45;;;4.95;;
41253;SDS011;26987;59.928;30.306;2022-12-07T06:34:20;12.57;;;6.00;;
41253;SDS011;26987;59.928;30.306;2022-12-07T06:36:49;12.10;;;5.72;;
41253;SDS011;26987;59.928;30.306;2022-12-07T06:39:19;10.75;;;5.13;;
41253;SDS011;26987;59.928;30.306;2022-12-07T06:41:49;10.60;;;5.80;;
41253;SDS011;26987;59.928;30.306;2022-12-07T06:44:18;9.57;;;4.85;;
41253;SDS011;26987;59.928;30.306;2022-12-07T06:46:47;10.77;;;5.63;;
41253;SDS011;26987;59.928;30.306;2022-12-07T06:49:15;14.02;;;6.22;;
41253;SDS011;26987;59.928;30.306;2022-12-07T06:51:44;15.85;;;5.93;;
41253;SDS011;26987;59.928;30.306;2022-12-07T06:54:13;10.15;;;5.57;;
41253;SDS011;26987;59.928;30.306;2022-12-07T06:56:41;13.05;;;5.00;;
41253;SDS011;26987;59.928;30.306;2022-12-07T06:59:09;15.30;;;5.35;;
41253;SDS011;26987;59.928;30.306;2022-12-07T07:01:37;12.02;;;5.03;;
41253;SDS011;26987;59.928;30.306;2022-12-07T07:04:05;11.70;;;4.43;;
41253;SDS011;26987;59.928;30.306;2022-12-07T07:06:32;11.50;;;5.32;;
41253;SDS011;26987;59.928;30.306;2022-12-07T07:09:02;11.60;;;4.85;;
41253;SDS011;26987;59.928;30.306;2022-12-07T07:11:30;10.90;;;4.78;;
41253;SDS011;26987;59.928;30.306;2022-12-07T07:13:57;18.20;;;5.03;;
41253;SDS011;26987;59.928;30.306;2022-12-07T07:16:28;8.80;;;4.28;;
41253;SDS011;26987;59.928;30.306;2022-12-07T07:18:56;9.93;;;4.03;;
41253;SDS011;26987;59.928;30.306;2022-12-07T07:21:24;9.02;;;4.60;;
41253;SDS011;26987;59.928;30.306;2022-12-07T07:23:52;13.27;;;4.40;;
41253;SDS011;26987;59.928;30.306;2022-12-07T07:26:21;11.23;;;4.10;;
41253;SDS011;26987;59.928;30.306;2022-12-07T07:28:49;8.75;;;4.57;;
41253;SDS011;26987;59.928;30.306;2022-12-07T07:31:16;10.00;;;4.78;;
41253;SDS011;26987;59.928;30.306;2022-12-07T07:33:44;10.57;;;4.47;;
41253;SDS011;26987;59.928;30.306;2022-12-07T07:36:13;10.15;;;5.10;;
41253;SDS011;26987;59.928;30.306;2022-12-07T07:38:40;8.10;;;4.57;;
41253;SDS011;26987;59.928;30.306;2022-12-07T07:41:08;7.97;;;4.25;;
41253;SDS011;26987;59.928;30.306;2022-12-07T07:43:37;10.70;;;4.50;;
41253;SDS011;26987;59.928;30.306;2022-12-07T07:46:05;8.85;;;3.72;;
41253;SDS011;26987;59.928;30.306;2022-12-07T07:48:33;8.95;;;4.60;;
41253;SDS011;26987;59.928;30.306;2022-12-07T07:51:00;9.25;;;4.15;;
41253;SDS011;26987;59.928;30.306;2022-12-07T07:53:32;15.70;;;4.95;;
41253;SDS011;26987;59.928;30.306;2022-12-07T07:56:00;9.90;;;4.15;;
41253;SDS011;26987;59.928;30.306;2022-12-07T07:58:27;14.20;;;4.95;;
41253;SDS011;26987;59.928;30.306;2022-12-07T08:00:56;12.23;;;3.95;;
41253;SDS011;26987;59.928;30.306;2022-12-07T08:03:30;9.48;;;4.00;;
41253;SDS011;26987;59.928;30.306;2022-12-07T08:05:57;10.07;;;4.35;;
41253;SDS011;26987;59.928;30.306;2022-12-07T08:08:28;11.25;;;4.20;;
41253;SDS011;26987;59.928;30.306;2022-12-07T08:10:55;12.07;;;4.55;;
41253;SDS011;26987;59.928;30.306;2022-12-07T08:13:26;12.18;;;4.22;;
41253;SDS011;26987;59.928;30.306;2022-12-07T08:15:54;14.27;;;4.43;;
41253;SDS011;26987;59.928;30.306;2022-12-07T08:18:23;7.10;;;4.07;;
41253;SDS011;26987;59.928;30.306;2022-12-07T08:20:50;10.15;;;3.70;;
41253;SDS011;26987;59.928;30.306;2022-12-07T08:23:18;10.98;;;5.38;;
41253;SDS011;26987;59.928;30.306;2022-12-07T08:25:46;7.97;;;4.18;;
41253;SDS011;26987;59.928;30.306;2022-12-07T08:28:13;10.57;;;4.63;;
41253;SDS011;26987;59.928;30.306;2022-12-07T08:30:42;8.75;;;4.53;;
41253;SDS011;26987;59.928;30.306;2022-12-07T08:33:10;12.15;;;4.32;;
41253;SDS011;26987;59.928;30.306;2022-12-07T08:35:39;13.38;;;4.47;;
41253;SDS011;26987;59.928;30.306;2022-12-07T08:38:07;14.65;;;5.45;;
41253;SDS011;26987;59.928;30.306;2022-12-07T08:40:35;15.95;;;4.60;;
41253;SDS011;26987;59.928;30.306;2022-12-07T08:43:02;14.23;;;5.57;;
41253;SDS011;26987;59.928;30.306;2022-12-07T08:45:30;10.55;;;5.35;;
41253;SDS011;26987;59.928;30.306;2022-12-07T08:48:01;17.42;;;6.88;;
41253;SDS011;26987;59.928;30.306;2022-12-07T08:50:33;13.60;;;5.72;;
41253;SDS011;26987;59.928;30.306;2022-12-07T08:53:03;13.73;;;5.25;;
41253;SDS011;26987;59.928;30.306;2022-12-07T08:55:32;11.07;;;4.65;;
41253;SDS011;26987;59.928;30.306;2022-12-07T08:58:01;12.00;;;5.13;;
41253;SDS011;26987;59.928;30.306;2022-12-07T09:00:30;11.35;;;4.40;;
41253;SDS011;26987;59.928;30.306;2022-12-07T09:02:58;13.77;;;4.72;;
41253;SDS011;26987;59.928;30.306;2022-12-07T09:05:26;12.85;;;6.05;;
41253;SDS011;26987;59.928;30.306;2022-12-07T09:07:54;10.45;;;5.18;;
41253;SDS011;26987;59.928;30.306;2022-12-07T09:10:28;12.05;;;4.43;;
41253;SDS011;26987;59.928;30.306;2022-12-07T09:12:56;15.57;;;6.25;;
41253;SDS011;26987;59.928;30.306;2022-12-07T09:15:26;14.65;;;5.60;;
41253;SDS011;26987;59.928;30.306;2022-12-07T09:17:54;14.10;;;7.20;;
41253;SDS011;26987;59.928;30.306;2022-12-07T09:20:22;11.55;;;5.32;;
41253;SDS011;26987;59.928;30.306;2022-12-07T09:22:50;11.38;;;5.25;;
41253;SDS011;26987;59.928;30.306;2022-12-07T09:25:17;9.23;;;4.95;;
41253;SDS011;26987;59.928;30.306;2022-12-07T09:27:48;15.23;;;5.65;;
41253;SDS011;26987;59.928;30.306;2022-12-07T09:30:21;11.95;;;4.97;;
41253;SDS011;26987;59.928;30.306;2022-12-07T09:32:49;7.00;;;4.07;;
41253;SDS011;26987;59.928;30.306;2022-12-07T09:35:17;13.93;;;5.05;;
41253;SDS011;26987;59.928;30.306;2022-12-07T09:37:44;11.00;;;5.53;;
41253;SDS011;26987;59.928;30.306;2022-12-07T09:40:12;12.18;;;5.50;;
41253;SDS011;26987;59.928;30.306;2022-12-07T09:42:42;10.27;;;4.97;;
41253;SDS011;26987;59.928;30.306;2022-12-07T09:45:17;10.07;;;4.80;;
41253;SDS011;26987;59.928;30.306;2022-12-07T09:47:48;13.95;;;5.03;;
41253;SDS011;26987;59.928;30.306;2022-12-07T09:50:16;9.38;;;5.00;;
41253;SDS011;26987;59.928;30.306;2022-12-07T09:52:47;11.85;;;4.93;;
41253;SDS011;26987;59.928;30.306;2022-12-07T09:55:19;10.05;;;4.60;;
41253;SDS011;26987;59.928;30.306;2022-12-07T09:57:52;9.73;;;4.20;;
41253;SDS011;26987;59.928;30.306;2022-12-07T10:00:22;17.05;;;6.10;;
41253;SDS011;26987;59.928;30.306;2022-12-07T10:02:53;11.07;;;4.97;;
41253;SDS011;26987;59.928;30.306;2022-12-07T10:05:24;9.48;;;4.70;;
41253;SDS011;26987;59.928;30.306;2022-12-07T10:07:54;11.73;;;4.90;;
41253;SDS011;26987;59.928;30.306;2022-12-07T10:10:23;12.25;;;5.82;;
41253;SDS011;26987;59.928;30.306;2022-12-07T10:12:53;7.18;;;4.30;;
41253;SDS011;26987;59.928;30.306;2022-12-07T10:15:25;11.00;;;4.80;;
41253;SDS011;26987;59.928;30.306;2022-12-07T10:18:16;9.75;;;4.57;;
41253;SDS011;26987;59.928;30.306;2022-12-07T10:21:00;11.10;;;4.72;;
41253;SDS011;26987;59.928;30.306;2022-12-07T10:23:34;8.48;;;4.10;;
41253;SDS011;26987;59.928;30.306;2022-12-07T10:28:53;9.07;;;3.88;;
41253;SDS011;26987;59.928;30.306;2022-12-07T10:31:23;10.82;;;4.25;;
41253;SDS011;26987;59.928;30.306;2022-12-07T10:33:51;8.73;;;4.35;;
41253;SDS011;26987;59.928;30.306;2022-12-07T10:36:22;9.60;;;4.43;;
41253;SDS011;26987;59.928;30.306;2022-12-07T10:38:52;10.50;;;5.60;;
41253;SDS011;26987;59.928;30.306;2022-12-07T10:41:25;9.80;;;4.72;;
41253;SDS011;26987;59.928;30.306;2022-12-07T10:43:54;11.15;;;5.18;;
41253;SDS011;26987;59.928;30.306;2022-12-07T10:46:39;8.45;;;3.97;;
41253;SDS011;26987;59.928;30.306;2022-12-07T10:52:22;10.40;;;4.65;;
41253;SDS011;26987;59.928;30.306;2022-12-07T10:55:05;11.38;;;4.75;;
41253;SDS011;26987;59.928;30.306;2022-12-07T10:57:45;6.90;;;3.53;;
41253;SDS011;26987;59.928;30.306;2022-12-07T11:00:24;9.82;;;4.93;;
41253;SDS011;26987;59.928;30.306;2022-12-07T11:05:56;10.40;;;4.32;;
41253;SDS011;26987;59.928;30.306;2022-12-07T11:08:39;11.50;;;4.68;;
41253;SDS011;26987;59.928;30.306;2022-12-07T11:11:20;8.70;;;4.50;;
41253;SDS011;26987;59.928;30.306;2022-12-07T11:14:00;8.18;;;4.53;;
41253;SDS011;26987;59.928;30.306;2022-12-07T11:16:34;8.40;;;3.95;;
41253;SDS011;26987;59.928;30.306;2022-12-07T11:22:18;11.30;;;3.78;;
41253;SDS011;26987;59.928;30.306;2022-12-07T11:24:55;9.38;;;4.20;;
41253;SDS011;26987;59.928;30.306;2022-12-07T11:27:30;10.98;;;4.65;;
41253;SDS011;26987;59.928;30.306;2022-12-07T11:30:15;9.93;;;4.85;;
41253;SDS011;26987;59.928;30.306;2022-12-07T11:32:58;10.10;;;4.20;;
41253;SDS011;26987;59.928;30.306;2022-12-07T11:35:42;9.48;;;4.35;;
41253;SDS011;26987;59.928;30.306;2022-12-07T11:38:18;7.93;;;4.03;;
41253;SDS011;26987;59.928;30.306;2022-12-07T11:40:49;8.80;;;4.07;;
41253;SDS011;26987;59.928;30.306;2022-12-07T11:43:23;10.07;;;5.00;;
41253;SDS011;26987;59.928;30.306;2022-12-07T11:45:56;11.13;;;4.47;;
41253;SDS011;26987;59.928;30.306;2022-12-07T11:48:29;10.73;;;4.43;;
41253;SDS011;26987;59.928;30.306;2022-12-07T11:51:02;10.55;;;5.10;;
41253;SDS011;26987;59.928;30.306;2022-12-07T11:53:35;11.18;;;5.10;;
41253;SDS011;26987;59.928;30.306;2022-12-07T11:56:08;10.57;;;4.10;;
41253;SDS011;26987;59.928;30.306;2022-12-07T11:58:41;9.50;;;3.80;;
41253;SDS011;26987;59.928;30.306;2022-12-07T12:01:16;10.50;;;4.25;;
41253;SDS011;26987;59.928;30.306;2022-12-07T12:03:55;8.60;;;3.92;;
41253;SDS011;26987;59.928;30.306;2022-12-07T12:06:26;11.05;;;4.20;;
41253;SDS011;26987;59.928;30.306;2022-12-07T12:08:55;12.18;;;4.45;;
41253;SDS011;26987;59.928;30.306;2022-12-07T12:11:35;11.40;;;5.72;;
41253;SDS011;26987;59.928;30.306;2022-12-07T12:14:20;13.23;;;4.57;;
41253;SDS011;26987;59.928;30.306;2022-12-07T12:17:22;10.75;;;4.40;;
41253;SDS011;26987;59.928;30.306;2022-12-07T12:20:04;15.65;;;5.15;;
41253;SDS011;26987;59.928;30.306;2022-12-07T12:22:45;10.73;;;4.10;;
41253;SDS011;26987;59.928;30.306;2022-12-07T12:25:19;9.90;;;4.70;;
41253;SDS011;26987;59.928;30.306;2022-12-07T12:27:49;12.43;;;4.80;;
41253;SDS011;26987;59.928;30.306;2022-12-07T12:30:26;9.85;;;4.15;;
41253;SDS011;26987;59.928;30.306;2022-12-07T12:33:03;11.55;;;4.18;;
41253;SDS011;26987;59.928;30.306;2022-12-07T12:38:25;8.65;;;4.40;;
41253;SDS011;26987;59.928;30.306;2022-12-07T12:40:56;11.80;;;4.80;;
41253;SDS011;26987;59.928;30.306;2022-12-07T12:46:37;10.52;;;4.35;;
41253;SDS011;26987;59.928;30.306;2022-12-07T12:49:30;11.63;;;4.70;;
41253;SDS011;26987;59.928;30.306;2022-12-07T12:55:16;13.65;;;4.70;;
41253;SDS011;26987;59.928;30.306;2022-12-07T12:57:47;8.80;;;4.15;;
41253;SDS011;26987;59.928;30.306;2022-12-07T13:00:41;10.35;;;4.60;;
41253;SDS011;26987;59.928;30.306;2022-12-07T13:03:18;11.27;;;4.95;;
41253;SDS011;26987;59.928;30.306;2022-12-07T13:05:49;11.77;;;4.97;;
41253;SDS011;26987;59.928;30.306;2022-12-07T13:08:46;13.43;;;4.65;;
41253;SDS011;26987;59.928;30.306;2022-12-07T13:11:20;10.20;;;4.70;;
41253;SDS011;26987;59.928;30.306;2022-12-07T13:16:56;13.00;;;4.63;;
41253;SDS011;26987;59.928;30.306;2022-12-07T13:25:26;11.02;;;4.00;;
41253;SDS011;26987;59.928;30.306;2022-12-07T13:28:02;11.00;;;4.07;;
41253;SDS011;26987;59.928;30.306;2022-12-07T13:30:43;12.27;;;4.53;;
41253;SDS011;26987;59.928;30.306;2022-12-07T13:33:14;11.43;;;5.10;;
41253;SDS011;26987;59.928;30.306;2022-12-07T13:35:44;15.50;;;4.80;;
41253;SDS011;26987;59.928;30.306;2022-12-07T13:38:18;13.13;;;5.68;;
41253;SDS011;26987;59.928;30.306;2022-12-07T13:41:04;10.75;;;4.70;;
41253;SDS011;26987;59.928;30.306;2022-12-07T13:43:48;11.77;;;4.13;;
41253;SDS011;26987;59.928;30.306;2022-12-07T13:46:19;10.88;;;4.28;;
41253;SDS011;26987;59.928;30.306;2022-12-07T13:48:52;11.07;;;4.00;;
41253;SDS011;26987;59.928;30.306;2022-12-07T13:51:22;10.35;;;4.13;;
41253;SDS011;26987;59.928;30.306;2022-12-07T13:53:53;10.52;;;4.28;;
41253;SDS011;26987;59.928;30.306;2022-12-07T13:56:33;13.40;;;4.80;;
41253;SDS011;26987;59.928;30.306;2022-12-07T13:59:03;12.40;;;5.28;;
41253;SDS011;26987;59.928;30.306;2022-12-07T14:01:33;19.63;;;5.20;;
41253;SDS011;26987;59.928;30.306;2022-12-07T14:04:17;13.55;;;5.10;;
41253;SDS011;26987;59.928;30.306;2022-12-07T14:07:00;10.82;;;4.15;;
41253;SDS011;26987;59.928;30.306;2022-12-07T14:09:53;12.93;;;5.57;;
41253;SDS011;26987;59.928;30.306;2022-12-07T14:12:22;13.18;;;4.05;;
41253;SDS011;26987;59.928;30.306;2022-12-07T14:14:52;7.05;;;3.75;;
41253;SDS011;26987;59.928;30.306;2022-12-07T14:17:22;10.25;;;5.03;;
41253;SDS011;26987;59.928;30.306;2022-12-07T14:19:51;10.55;;;4.82;;
41253;SDS011;26987;59.928;30.306;2022-12-07T14:22:25;12.70;;;4.40;;
41253;SDS011;26987;59.928;30.306;2022-12-07T14:24:58;11.85;;;5.55;;
41253;SDS011;26987;59.928;30.306;2022-12-07T14:27:30;14.48;;;5.88;;
41253;SDS011;26987;59.928;30.306;2022-12-07T14:30:04;15.25;;;3.92;;
41253;SDS011;26987;59.928;30.306;2022-12-07T14:32:34;16.08;;;5.72;;
41253;SDS011;26987;59.928;30.306;2022-12-07T14:35:08;14.40;;;6.07;;
41253;SDS011;26987;59.928;30.306;2022-12-07T14:37:38;13.10;;;5.55;;
41253;SDS011;26987;59.928;30.306;2022-12-07T14:40:07;12.50;;;5.60;;
41253;SDS011;26987;59.928;30.306;2022-12-07T14:42:39;12.10;;;5.47;;
41253;SDS011;26987;59.928;30.306;2022-12-07T14:45:13;16.50;;;5.57;;
41253;SDS011;26987;59.928;30.306;2022-12-07T14:47:43;10.32;;;3.83;;
41253;SDS011;26987;59.928;30.306;2022-12-07T14:50:12;14.48;;;5.82;;
41253;SDS011;26987;59.928;30.306;2022-12-07T14:52:41;14.75;;;5.53;;
41253;SDS011;26987;59.928;30.306;2022-12-07T14:55:14;16.30;;;5.05;;
41253;SDS011;26987;59.928;30.306;2022-12-07T14:57:47;13.52;;;6.20;;
41253;SDS011;26987;59.928;30.306;2022-12-07T15:00:17;13.73;;;5.82;;
41253;SDS011;26987;59.928;30.306;2022-12-07T15:02:46;15.40;;;5.40;;
41253;SDS011;26987;59.928;30.306;2022-12-07T15:05:15;11.63;;;5.88;;
41253;SDS011;26987;59.928;30.306;2022-12-07T15:07:43;15.75;;;5.95;;
41253;SDS011;26987;59.928;30.306;2022-12-07T15:10:13;11.75;;;5.63;;
41253;SDS011;26987;59.928;30.306;2022-12-07T15:12:44;14.05;;;6.50;;
41253;SDS011;26987;59.928;30.306;2022-12-07T15:15:12;17.77;;;6.25;;
41253;SDS011;26987;59.928;30.306;2022-12-07T15:17:42;15.07;;;6.80;;
41253;SDS011;26987;59.928;30.306;2022-12-07T15:20:11;19.92;;;6.35;;
41253;SDS011;26987;59.928;30.306;2022-12-07T15:22:39;19.50;;;6.55;;
41253;SDS011;26987;59.928;30.306;2022-12-07T15:25:08;16.17;;;7.40;;